Time;durP1;ratioP1;P1;durP2;ratioP2;P2;SDS_P1;SDS_P2;PMS_P1;PMS_P2;Temp;Humidity;BMP_temperature;BMP_pressure;BME280_temperature;BME280_humidity;BME280_pressure;Samples;Min_cycle;Max_cycle;Signal;HPM_P1;HPM_P2
2023/10/12 00:01:23;;;;;;;;;;;;;;;20.47;60.89;100397.16;5041419;28;6036;-71
2023/10/12 00:03:55;;;;;;;;;;;;;;;20.48;60.79;100392.91;5038557;28;2078;-71
2023/10/12 00:06:23;;;;;;;;;;;;;;;20.48;60.80;100397.94;5037912;28;2144;-71
2023/10/12 00:08:50;;;;;;;;;;;;;;;20.47;60.75;100391.41;5039977;28;2162;-71
2023/10/12 00:11:20;;;;;;;;;;;;;;;20.47;60.96;100385.66;5040476;28;2252;-71
2023/10/12 00:13:47;;;;;;;;;;;;;;;20.47;60.71;100396.44;5037252;28;2138;-71
2023/10/12 00:16:18;;;;;;;;;;;;;;;20.46;60.96;100401.47;5041122;28;2142;-71
2023/10/12 00:18:49;;;;;;;;;;;;;;;20.46;60.65;100398.59;5040799;28;2152;-71
2023/10/12 00:21:19;;;;;;;;;;;;;;;20.46;60.87;100398.59;5040974;28;1936;-71
2023/10/12 00:23:47;;;;;;;;;;;;;;;20.46;60.96;100389.97;5038379;28;2150;-71
2023/10/12 00:26:13;;;;;;;;;;;;;;;20.45;60.73;100388.47;5041175;28;2058;-71
2023/10/12 00:28:44;;;;;;;;;;;;;;;20.46;60.79;100377.72;5040523;28;2114;-71
2023/10/12 00:31:21;;;;;;;;;;;;;;;20.45;60.89;100379.84;5027016;28;6372;-71
2023/10/12 00:33:50;;;;;;;;;;;;;;;20.47;60.74;100379.19;5042391;28;2388;-71
2023/10/12 00:36:21;;;;;;;;;;;;;;;20.47;60.88;100390.69;5041177;28;1971;-71
2023/10/12 00:38:48;;;;;;;;;;;;;;;20.46;60.69;100387.09;5022845;28;2177;-71
2023/10/12 00:41:17;;;;;;;;;;;;;;;20.45;60.86;100388.47;5038675;28;2173;-71
2023/10/12 00:44:08;;;;;;;;;;;;;;;20.45;60.85;100390.59;5040035;28;1850;-71
2023/10/12 00:51:53;;;;;;;;;;;;;;;20.45;60.65;100399.22;5037612;28;2168;-71
2023/10/12 00:57:05;;;;;;;;;;;;;;;20.44;60.85;100394.91;5040347;28;2290;-73
2023/10/12 00:59:33;;;;;;;;;;;;;;;20.44;60.67;100392.75;5024161;28;2102;-74
2023/10/12 01:02:00;;;;;;;;;;;;;;;20.44;61.02;100406.41;5022354;28;6214;-74
2023/10/12 01:04:27;;;;;;;;;;;;;;;20.44;60.93;100398.50;5010022;28;2171;-73
2023/10/12 01:06:59;;;;;;;;;;;;;;;20.44;60.71;100397.78;5041578;28;1931;-73
2023/10/12 01:09:28;;;;;;;;;;;;;;;20.43;60.88;100399.91;5021889;28;2130;-73
2023/10/12 01:11:58;;;;;;;;;;;;;;;20.44;60.78;100403.53;5040246;28;2059;-74
2023/10/12 01:14:30;;;;;;;;;;;;;;;20.44;60.78;100400.66;5037998;28;2140;-73
2023/10/12 01:17:04;;;;;;;;;;;;;;;20.43;60.81;100402.03;5040639;28;2429;-73
2023/10/12 01:19:31;;;;;;;;;;;;;;;20.43;60.82;100397.03;5040296;28;2156;-74
2023/10/12 01:22:08;;;;;;;;;;;;;;;20.43;60.66;100408.53;5035559;28;2137;-74
2023/10/12 01:24:35;;;;;;;;;;;;;;;20.42;60.94;100398.41;5039923;28;2139;-73
2023/10/12 01:27:03;;;;;;;;;;;;;;;20.42;60.92;100395.53;5040505;28;2184;-73
2023/10/12 01:29:31;;;;;;;;;;;;;;;20.42;60.79;100384.03;5032838;28;2209;-74
2023/10/12 01:32:21;;;;;;;;;;;;;;;20.42;60.87;100381.16;5031180;28;6279;-73
2023/10/12 01:34:52;;;;;;;;;;;;;;;20.42;61.02;100378.28;5037479;28;2079;-74
2023/10/12 01:37:26;;;;;;;;;;;;;;;20.42;61.04;100384.03;5017023;28;2143;-73
2023/10/12 01:39:57;;;;;;;;;;;;;;;20.42;60.81;100381.16;5037225;28;2137;-74
2023/10/12 01:42:34;;;;;;;;;;;;;;;20.42;60.76;100389.78;5033702;28;2082;-73
2023/10/12 01:45:03;;;;;;;;;;;;;;;20.41;60.72;100388.34;5036028;28;2125;-73
2023/10/12 01:47:29;;;;;;;;;;;;;;;20.42;60.87;100394.81;5038058;28;2070;-73
2023/10/12 01:50:00;;;;;;;;;;;;;;;20.42;60.92;100395.53;5021667;28;2298;-74
2023/10/12 01:52:26;;;;;;;;;;;;;;;20.42;60.83;100401.28;5034250;28;2158;-73
2023/10/12 01:54:53;;;;;;;;;;;;;;;20.40;61.07;100386.84;5031381;28;2176;-73
2023/10/12 01:57:30;;;;;;;;;;;;;;;20.41;60.98;100396.19;5034204;28;2330;-74
2023/10/12 01:59:58;;;;;;;;;;;;;;;20.41;60.93;100399.06;5018664;28;2221;-74
2023/10/12 02:02:25;;;;;;;;;;;;;;;20.40;61.01;100395.47;5022420;28;6237;-73
2023/10/12 02:04:52;;;;;;;;;;;;;;;20.40;60.70;100398.34;5037532;28;2220;-73
2023/10/12 02:07:18;;;;;;;;;;;;;;;20.40;60.81;100395.47;5034000;28;1869;-74
2023/10/12 02:09:45;;;;;;;;;;;;;;;20.39;60.89;100408.38;5035834;28;2172;-74
2023/10/12 02:12:12;;;;;;;;;;;;;;;20.41;61.09;100404.81;5021073;28;2195;-74
2023/10/12 02:14:40;;;;;;;;;;;;;;;20.40;60.97;100409.84;5019578;28;2138;-73
2023/10/12 02:17:08;;;;;;;;;;;;;;;20.40;60.97;100404.09;5036612;28;2194;-73
2023/10/12 02:19:42;;;;;;;;;;;;;;;20.39;60.88;100402.63;5019584;28;2216;-74
2023/10/12 02:22:20;;;;;;;;;;;;;;;20.40;60.99;100400.47;5019867;28;2114;-73
2023/10/12 02:25:02;;;;;;;;;;;;;;;20.40;60.95;100409.84;5036418;28;2176;-73
2023/10/12 02:27:28;;;;;;;;;;;;;;;20.39;60.88;100414.13;5022174;28;2157;-73
2023/10/12 02:29:56;;;;;;;;;;;;;;;20.39;60.75;100416.28;5034656;28;2181;-73
2023/10/12 02:32:24;;;;;;;;;;;;;;;20.39;61.03;100419.16;5038789;28;5960;-73
2023/10/12 02:35:04;;;;;;;;;;;;;;;20.39;60.99;100417.00;5033078;28;2208;-74
2023/10/12 02:37:31;;;;;;;;;;;;;;;20.40;61.07;100420.59;5037676;28;2395;-73
2023/10/12 02:39:57;;;;;;;;;;;;;;;20.40;60.85;100426.38;5020812;28;1612;-73
2023/10/12 02:42:38;;;;;;;;;;;;;;;20.39;61.00;100425.63;5016851;28;2131;-73
2023/10/12 02:47:41;;;;;;;;;;;;;;;20.39;60.89;100436.41;5038690;28;2276;-73
2023/10/12 02:52:36;;;;;;;;;;;;;;;20.39;61.00;100442.88;5034712;28;2185;-74
2023/10/12 02:55:26;;;;;;;;;;;;;;;20.38;61.07;100447.13;5035147;28;1914;-74
2023/10/12 02:57:53;;;;;;;;;;;;;;;20.39;60.83;100448.63;5034501;28;2252;-73
2023/10/12 03:00:23;;;;;;;;;;;;;;;20.39;60.99;100453.66;5030853;28;6058;-73
2023/10/12 03:02:52;;;;;;;;;;;;;;;20.38;60.90;100447.13;5020368;28;2088;-74
2023/10/12 03:05:32;;;;;;;;;;;;;;;20.38;61.09;100452.91;5020130;28;2197;-73
2023/10/12 03:08:06;;;;;;;;;;;;;;;20.38;61.00;100458.66;5037406;28;2594;-74
2023/10/12 03:10:33;;;;;;;;;;;;;;;20.38;60.91;100457.91;5036849;28;2196;-74
2023/10/12 03:13:04;;;;;;;;;;;;;;;20.38;61.08;100458.66;5018232;28;2150;-74
2023/10/12 03:15:49;;;;;;;;;;;;;;;20.37;61.08;100462.94;5040361;28;1999;-73
2023/10/12 03:18:16;;;;;;;;;;;;;;;20.38;61.10;100457.91;5038426;28;2190;-74
2023/10/12 03:20:59;;;;;;;;;;;;;;;20.38;60.96;100452.91;5019332;28;2288;-73
2023/10/12 03:23:27;;;;;;;;;;;;;;;20.37;61.01;100462.94;5043843;28;2130;-73
2023/10/12 03:25:53;;;;;;;;;;;;;;;20.37;60.83;100462.94;5044003;28;1579;-73
2023/10/12 03:28:44;;;;;;;;;;;;;;;20.37;61.14;100468.69;5023416;28;2173;-74
2023/10/12 03:31:34;;;;;;;;;;;;;;;20.38;60.88;100472.28;5041085;28;7634;-73
2023/10/12 03:34:00;;;;;;;;;;;;;;;20.38;61.06;100470.16;5029711;28;1733;-73
2023/10/12 03:36:32;;;;;;;;;;;;;;;20.36;61.20;100487.31;5026773;28;1981;-74
2023/10/12 03:41:54;;;;;;;;;;;;;;;20.36;61.03;100484.44;5039164;28;2138;-73
2023/10/12 03:44:33;;;;;;;;;;;;;;;20.35;61.17;100500.22;5024939;28;2130;-74
2023/10/12 03:52:29;;;;;;;;;;;;;;;20.36;60.97;100506.72;5042341;28;2150;-74
2023/10/12 03:57:36;;;;;;;;;;;;;;;20.35;60.96;100514.59;5041486;28;2161;-73
2023/10/12 04:05:21;;;;;;;;;;;;;;;20.35;61.15;100517.47;5027229;28;2045;-73
2023/10/12 04:11:19;;;;;;;;;;;;;;;20.35;61.16;100511.00;5041877;28;2137;-73
2023/10/12 04:13:55;;;;;;;;;;;;;;;20.34;61.22;100504.50;5025661;28;2228;-73
2023/10/12 04:18:32;;;;;;;;;;;;;;;20.34;61.26;100510.25;5042615;28;2105;-74
2023/10/12 04:20:59;;;;;;;;;;;;;;;20.35;61.25;100517.47;5024367;28;2169;-74
2023/10/12 04:23:59;;;;;;;;;;;;;;;20.33;61.17;100511.66;5025158;28;2473;-74
2023/10/12 04:29:01;;;;;;;;;;;;;;;20.33;61.18;100520.28;5043435;28;2150;-73
2023/10/12 04:31:49;;;;;;;;;;;;;;;20.34;61.08;100516.00;5026038;28;6415;-73
2023/10/12 04:34:16;;;;;;;;;;;;;;;20.34;61.11;100527.53;5040223;28;2559;-73
2023/10/12 04:47:05;;;;;;;;;;;;;;;20.34;61.39;100538.25;5020007;28;2236;-73
2023/10/12 04:57:37;;;;;;;;;;;;;;;20.33;61.25;100551.16;5026987;28;2113;-73
2023/10/12 05:05:54;;;;;;;;;;;;;;;20.33;61.32;100549.03;5041006;28;2182;-73
2023/10/12 05:08:03;;;;;;;;;;;;;;;20.33;61.32;100556.91;5040349;28;2028;-73
2023/10/12 05:13:05;;;;;;;;;;;;;;;20.31;61.25;100557.56;5041936;28;2097;-73
2023/10/12 05:15:54;;;;;;;;;;;;;;;20.32;61.21;100559.06;5039881;28;2149;-74
2023/10/12 05:18:22;;;;;;;;;;;;;;;20.31;61.15;100557.56;5042126;28;2113;-72
2023/10/12 05:20:48;;;;;;;;;;;;;;;20.31;61.36;100551.81;5042392;28;2051;-73
2023/10/12 05:23:16;;;;;;;;;;;;;;;20.31;61.41;100557.56;5024510;28;2165;-72
2023/10/12 05:28:26;;;;;;;;;;;;;;;20.32;61.23;100535.28;5041190;28;2136;-72
2023/10/12 05:30:59;;;;;;;;;;;;;;;20.31;61.23;100528.81;5023691;28;6135;-72
2023/10/12 05:36:12;;;;;;;;;;;;;;;20.32;61.34;100544.69;5033564;28;2204;-75
2023/10/12 05:38:40;;;;;;;;;;;;;;;20.35;61.21;100557.75;5039467;28;2102;-75
2023/10/12 05:41:08;;;;;;;;;;;;;;;20.35;61.44;100560.63;5015267;28;2220;-88
2023/10/12 05:43:36;;;;;;;;;;;;;;;20.35;61.60;100563.50;5029795;28;3884;-84
2023/10/12 05:46:10;;;;;;;;;;;;;;;20.31;61.52;100566.19;5036511;28;2626;-86
2023/10/12 05:48:40;;;;;;;;;;;;;;;20.34;61.71;100562.03;5039369;28;2341;-86
2023/10/12 05:51:10;;;;;;;;;;;;;;;20.41;61.29;100560.88;5034085;28;2343;-86
2023/10/12 05:53:37;;;;;;;;;;;;;;;20.45;61.33;100554.53;5037769;28;2258;-86
2023/10/12 05:56:05;;;;;;;;;;;;;;;20.46;61.21;100559.63;5040226;28;2258;-86
2023/10/12 05:58:33;;;;;;;;;;;;;;;20.47;61.09;100566.88;5039245;28;2353;-86
2023/10/12 06:01:08;;;;;;;;;;;;;;;20.49;61.10;100572.69;5021992;28;6291;-86
2023/10/12 06:03:39;;;;;;;;;;;;;;;20.48;61.14;100579.88;5041323;28;2197;-86
2023/10/12 06:06:09;;;;;;;;;;;;;;;20.51;60.84;100575.66;5038977;28;2307;-85
2023/10/12 06:08:35;;;;;;;;;;;;;;;20.51;60.98;100574.94;5022140;28;2235;-82
2023/10/12 06:11:04;;;;;;;;;;;;;;;20.78;64.44;100590.44;5035540;28;2383;-85
2023/10/12 06:13:32;;;;;;;;;;;;;;;21.04;63.89;100622.41;5037468;28;2251;-79
2023/10/12 06:15:59;;;;;;;;;;;;;;;21.18;62.23;100613.56;5037481;28;4323;-81
2023/10/12 06:18:30;;;;;;;;;;;;;;;21.23;61.58;100621.69;5039763;28;2395;-83
2023/10/12 06:21:06;;;;;;;;;;;;;;;21.28;60.58;100608.19;5023600;28;2359;-87
2023/10/12 06:23:39;;;;;;;;;;;;;;;21.31;61.01;100590.34;5035184;28;2490;-85
2023/10/12 06:26:09;;;;;;;;;;;;;;;21.33;60.82;100576.03;5039504;28;2384;-86
2023/10/12 06:28:38;;;;;;;;;;;;;;;21.28;60.48;100582.28;5039304;28;2576;-86
2023/10/12 06:31:07;;;;;;;;;;;;;;;21.29;60.88;100601.78;5036990;28;6046;-86
2023/10/12 06:33:40;;;;;;;;;;;;;;;21.25;61.08;100601.63;5037223;28;2396;-78
2023/10/12 06:36:16;;;;;;;;;;;;;;;21.24;61.42;100623.19;5037822;28;2347;-76
2023/10/12 06:39:40;;;;;;;;;;;;;;;21.21;61.50;100627.41;5038616;28;2265;-78
2023/10/12 06:44:13;;;;;;;;;;;;;;;21.19;61.77;100644.59;5013887;28;2394;-78
2023/10/12 06:46:46;;;;;;;;;;;;;;;21.22;62.13;100614.47;5039141;28;2319;-78
2023/10/12 06:49:18;;;;;;;;;;;;;;;21.22;62.04;100651.19;5023020;28;2514;-82
2023/10/12 06:51:54;;;;;;;;;;;;;;;21.18;61.90;100677.66;5022299;28;2297;-79
2023/10/12 06:54:31;;;;;;;;;;;;;;;21.09;62.30;100696.00;5037433;28;4110;-81
2023/10/12 07:02:29;;;;;;;;;;;;;;;21.09;62.48;100684.50;5035700;28;6264;-81
2023/10/12 07:04:57;;;;;;;;;;;;;;;21.31;61.70;100701.94;5039521;28;2532;-82
2023/10/12 07:07:27;;;;;;;;;;;;;;;21.25;61.77;100705.28;5044358;28;2438;-85
2023/10/12 07:09:54;;;;;;;;;;;;;;;21.16;62.02;100714.28;5044028;28;2404;-85
2023/10/12 07:12:23;;;;;;;;;;;;;;;21.10;62.46;100704.00;5041267;28;2357;-86
2023/10/12 07:14:55;;;;;;;;;;;;;;;21.22;61.79;100711.66;5042297;28;4241;-84
2023/10/12 07:17:32;;;;;;;;;;;;;;;21.17;61.91;100728.03;5042166;28;3614;-76
2023/10/12 07:19:59;;;;;;;;;;;;;;;21.07;62.06;100730.47;5039129;28;2279;-78
2023/10/12 07:22:25;;;;;;;;;;;;;;;21.25;61.59;100734.09;5041992;28;2383;-79
2023/10/12 07:24:53;;;;;;;;;;;;;;;21.21;61.88;100733.94;5039594;28;2294;-78
2023/10/12 07:27:22;;;;;;;;;;;;;;;20.98;62.17;100720.00;5037723;28;2242;-78
2023/10/12 07:30:02;;;;;;;;;;;;;;;21.21;62.29;100715.91;5036786;28;2365;-79
2023/10/12 07:35:31;;;;;;;;;;;;;;;21.37;61.38;100727.34;5041528;28;2268;-79
2023/10/12 07:37:58;;;;;;;;;;;;;;;21.29;61.56;100728.50;5034127;28;3833;-79
2023/10/12 07:40:25;;;;;;;;;;;;;;;21.31;61.42;100737.22;5030077;28;3863;-78
2023/10/12 07:42:53;;;;;;;;;;;;;;;21.34;61.30;100744.53;5022762;28;2352;-78
2023/10/12 07:45:20;;;;;;;;;;;;;;;21.32;61.38;100747.34;5040607;28;3825;-78
2023/10/12 07:47:49;;;;;;;;;;;;;;;21.06;62.00;100746.28;5036820;28;3701;-79
2023/10/12 07:50:25;;;;;;;;;;;;;;;20.84;62.72;100795.00;5038401;28;2346;-79
2023/10/12 07:53:05;;;;;;;;;;;;;;;20.82;62.92;100786.25;5039417;28;2465;-80
2023/10/12 07:55:41;;;;;;;;;;;;;;;20.90;62.26;100796.00;5006565;28;3628;-79
2023/10/12 07:58:12;;;;;;;;;;;;;;;20.85;62.37;100814.50;5038829;28;3743;-79
2023/10/12 08:00:41;;;;;;;;;;;;;;;20.85;62.35;100820.25;5035959;28;6276;-79
2023/10/12 08:13:15;;;;;;;;;;;;;;;20.81;62.02;100843.09;5040281;28;3186;-79
2023/10/12 08:21:24;;;;;;;;;;;;;;;20.79;61.82;100863.13;5042630;28;2204;-79
2023/10/12 08:23:58;;;;;;;;;;;;;;;20.79;61.72;100868.16;5040456;28;2321;-78
2023/10/12 08:29:17;;;;;;;;;;;;;;;20.77;61.29;100882.44;5042484;28;2571;-78
2023/10/12 08:31:47;;;;;;;;;;;;;;;20.76;61.36;100893.22;5040069;28;6117;-78
2023/10/12 08:34:33;;;;;;;;;;;;;;;20.75;61.04;100894.59;5042825;28;2356;-79
2023/10/12 08:39:39;;;;;;;;;;;;;;;20.75;61.07;100909.00;5023720;28;3567;-79
2023/10/12 08:44:51;;;;;;;;;;;;;;;20.76;61.02;100916.25;5018429;28;2475;-80
2023/10/12 08:47:25;;;;;;;;;;;;;;;20.78;60.75;100919.22;5037707;28;2845;-79
2023/10/12 08:52:28;;;;;;;;;;;;;;;20.79;61.09;100917.81;5036133;28;2390;-71
2023/10/12 08:54:57;;;;;;;;;;;;;;;20.94;61.79;100916.34;5031572;28;3828;-82
2023/10/12 08:57:35;;;;;;;;;;;;;;;21.11;60.92;100903.41;5036695;28;2579;-82
2023/10/12 09:00:23;;;;;;;;;;;;;;;21.10;60.62;100913.44;5036748;28;2407;-82
2023/10/12 09:02:53;;;;;;;;;;;;;;;21.19;60.86;100923.91;5040207;28;6330;-85
2023/10/12 09:05:24;;;;;;;;;;;;;;;21.29;60.44;100923.63;5042792;28;2468;-83
2023/10/12 09:08:06;;;;;;;;;;;;;;;21.43;60.53;100923.50;5048578;28;2489;-81
2023/10/12 09:11:02;;;;;;;;;;;;;;;21.49;59.87;100920.91;5044768;28;2460;-81
2023/10/12 09:13:29;;;;;;;;;;;;;;;21.43;59.51;100935.03;5027372;28;3778;-84
2023/10/12 09:15:56;;;;;;;;;;;;;;;21.47;59.82;100929.47;5025257;28;2559;-83
2023/10/12 09:18:29;;;;;;;;;;;;;;;21.41;60.01;100929.19;5041783;28;2212;-83
2023/10/12 09:23:31;;;;;;;;;;;;;;;21.44;59.80;100934.41;5040659;28;3770;-86
2023/10/12 09:28:58;;;;;;;;;;;;;;;21.39;60.03;100940.59;5041653;28;2275;-89
2023/10/12 09:36:43;;;;;;;;;;;;;;;21.29;60.40;100947.41;5041909;28;2268;-81
2023/10/12 09:39:14;;;;;;;;;;;;;;;21.22;60.47;100936.28;5042989;28;2610;-84
2023/10/12 09:41:41;;;;;;;;;;;;;;;21.20;60.50;100945.56;5043227;28;2130;-81
2023/10/12 09:44:11;;;;;;;;;;;;;;;21.16;60.37;100945.38;5042358;28;2477;-83
2023/10/12 09:46:47;;;;;;;;;;;;;;;21.16;60.39;100945.38;5038463;28;2227;-85
2023/10/12 09:49:21;;;;;;;;;;;;;;;21.31;60.28;100944.59;5042577;28;2156;-87
2023/10/12 09:51:54;;;;;;;;;;;;;;;21.32;60.23;100951.09;5041713;28;2182;-89
2023/10/12 09:54:28;;;;;;;;;;;;;;;21.31;60.17;100944.59;5040389;28;2262;-87
2023/10/12 09:56:59;;;;;;;;;;;;;;;21.27;60.29;100944.41;5037951;28;2316;-78
2023/10/12 09:59:31;;;;;;;;;;;;;;;21.39;60.25;100938.44;5041866;28;2365;-79
2023/10/12 10:02:27;;;;;;;;;;;;;;;21.54;60.04;100945.59;5041408;28;6235;-80
2023/10/12 10:05:46;;;;;;;;;;;;;;;21.60;59.66;100945.88;5039432;28;2272;-85
2023/10/12 10:07:55;;;;;;;;;;;;;;;21.63;59.68;100933.03;5041409;28;2077;-83
2023/10/12 10:10:35;;;;;;;;;;;;;;;21.54;59.86;100942.72;5039092;28;3142;-79
2023/10/12 10:13:32;;;;;;;;;;;;;;;21.51;59.78;100944.03;5027992;28;2402;-80
2023/10/12 10:15:59;;;;;;;;;;;;;;;21.65;59.72;100941.75;5037502;28;2307;-80
2023/10/12 10:18:28;;;;;;;;;;;;;;;21.73;59.09;100936.31;5039381;28;2267;-80
2023/10/12 10:21:05;;;;;;;;;;;;;;;21.58;59.57;100942.91;5036055;28;3778;-81
2023/10/12 10:23:37;;;;;;;;;;;;;;;21.47;59.59;100943.88;5035558;28;2355;-84
2023/10/12 10:26:16;;;;;;;;;;;;;;;21.43;59.77;100944.41;5037850;28;2310;-80
2023/10/12 10:29:04;;;;;;;;;;;;;;;21.19;59.95;100944.06;5036882;28;3627;-80
2023/10/12 10:31:32;;;;;;;;;;;;;;;21.15;60.58;100949.66;5037471;28;6658;-82
2023/10/12 10:34:07;;;;;;;;;;;;;;;21.63;60.13;100956.09;5038943;28;2341;-82
2023/10/12 10:36:34;;;;;;;;;;;;;;;21.82;59.62;100959.72;5036890;28;2407;-81
2023/10/12 10:39:04;;;;;;;;;;;;;;;21.89;59.41;100965.09;5036954;28;2399;-82
2023/10/12 10:44:15;;;;;;;;;;;;;;;21.88;58.84;100957.13;5040000;28;2408;-78
2023/10/12 10:46:44;;;;;;;;;;;;;;;21.78;59.16;100942.25;5038424;28;2415;-80
2023/10/12 10:49:15;;;;;;;;;;;;;;;21.89;59.08;100939.13;5022443;28;2567;-80
2023/10/12 10:52:13;;;;;;;;;;;;;;;21.82;59.16;100942.44;5038176;28;2434;-81
2023/10/12 10:54:40;;;;;;;;;;;;;;;21.74;59.46;100943.59;5039358;28;2857;-82
2023/10/12 10:57:24;;;;;;;;;;;;;;;21.73;59.23;100947.84;5037582;28;2364;-83
2023/10/12 10:59:53;;;;;;;;;;;;;;;21.70;59.54;100937.66;5038433;28;2368;-82
2023/10/12 11:02:21;;;;;;;;;;;;;;;21.78;59.36;100939.38;5034693;28;6373;-80
2023/10/12 11:04:51;;;;;;;;;;;;;;;21.82;59.43;100945.31;5037632;28;2496;-80
2023/10/12 11:07:17;;;;;;;;;;;;;;;21.88;59.25;100945.59;5035372;28;2431;-78
2023/10/12 11:12:20;;;;;;;;;;;;;;;21.63;59.68;100938.06;5038805;28;2435;-79
2023/10/12 11:17:36;;;;;;;;;;;;;;;21.56;59.75;100939.19;5039246;28;2547;-82
2023/10/12 11:20:07;;;;;;;;;;;;;;;21.77;59.66;100946.56;5036435;28;2392;-78
2023/10/12 11:22:42;;;;;;;;;;;;;;;21.85;59.75;100941.88;5039312;28;2431;-77
2023/10/12 11:25:12;;;;;;;;;;;;;;;21.88;59.23;100943.44;5038564;28;2360;-78
2023/10/12 11:27:39;;;;;;;;;;;;;;;21.92;59.05;100939.97;5038190;28;2649;-78
2023/10/12 11:30:07;;;;;;;;;;;;;;;21.65;59.31;100938.88;5036314;28;2401;-78
2023/10/12 11:32:53;;;;;;;;;;;;;;;21.60;59.74;100928.59;5036453;28;6063;-79
2023/10/12 11:35:40;;;;;;;;;;;;;;;21.55;59.81;100938.44;5039291;28;2333;-80
2023/10/12 11:38:17;;;;;;;;;;;;;;;21.68;59.78;100940.44;5039778;28;2333;-80
2023/10/12 11:40:44;;;;;;;;;;;;;;;21.67;59.77;100944.72;5037786;28;2329;-80
2023/10/12 11:43:11;;;;;;;;;;;;;;;21.69;59.43;100936.16;5040191;28;2490;-78
2023/10/12 11:45:52;;;;;;;;;;;;;;;21.65;59.97;100930.22;5041626;28;2628;-78
2023/10/12 11:48:20;;;;;;;;;;;;;;;21.62;60.08;100936.56;5039452;28;2352;-78
2023/10/12 11:50:48;;;;;;;;;;;;;;;21.57;60.11;100935.63;5023131;28;2853;-78
2023/10/12 11:53:18;;;;;;;;;;;;;;;21.58;59.78;100925.63;5023759;28;2804;-78
2023/10/12 11:55:44;;;;;;;;;;;;;;;21.91;60.05;100930.56;5039170;28;2396;-79
2023/10/12 11:58:18;;;;;;;;;;;;;;;21.84;59.08;100931.72;5039995;28;2930;-84
2023/10/12 12:00:44;;;;;;;;;;;;;;;21.67;59.46;100938.97;5039676;28;6009;-79
2023/10/12 12:03:11;;;;;;;;;;;;;;;21.63;59.87;100938.78;5025312;28;2407;-78
2023/10/12 12:05:39;;;;;;;;;;;;;;;21.57;60.13;100935.63;5038870;28;2456;-79
2023/10/12 12:08:14;;;;;;;;;;;;;;;21.57;59.88;100937.78;5036488;28;3786;-81
2023/10/12 12:13:12;;;;;;;;;;;;;;;21.69;60.03;100936.16;5040201;28;2314;-80
2023/10/12 12:15:44;;;;;;;;;;;;;;;21.71;59.49;100936.22;5042060;28;2287;-81
2023/10/12 12:18:20;;;;;;;;;;;;;;;21.94;59.62;100932.16;5040717;28;2256;-78
2023/10/12 12:20:47;;;;;;;;;;;;;;;22.00;59.43;100948.22;5041637;28;2302;-79
2023/10/12 12:23:14;;;;;;;;;;;;;;;22.12;58.98;100940.78;5037987;28;2320;-79
2023/10/12 12:25:40;;;;;;;;;;;;;;;22.17;58.56;100948.22;5041649;28;2323;-80
2023/10/12 12:28:07;;;;;;;;;;;;;;;22.03;58.78;100938.97;5039178;28;2307;-80
2023/10/12 12:30:35;;;;;;;;;;;;;;;21.88;59.13;100929.03;5037597;28;6197;-79
2023/10/12 12:33:23;;;;;;;;;;;;;;;21.73;59.61;100939.22;5039223;28;2536;-80
2023/10/12 12:36:12;;;;;;;;;;;;;;;21.64;60.04;100933.75;5041735;28;2381;-83
2023/10/12 12:41:23;;;;;;;;;;;;;;;21.24;60.51;100937.09;5040638;28;2334;-81
2023/10/12 12:43:50;;;;;;;;;;;;;;;21.41;59.46;100940.72;5042236;28;2314;-79
2023/10/12 12:46:17;;;;;;;;;;;;;;;21.52;59.58;100936.88;5044045;28;2273;-81
2023/10/12 12:48:46;;;;;;;;;;;;;;;21.65;59.61;100943.91;5024595;28;2347;-81
2023/10/12 12:51:15;;;;;;;;;;;;;;;21.90;59.22;100937.03;5024446;28;2302;-81
2023/10/12 12:53:42;;;;;;;;;;;;;;;21.89;58.88;100949.94;5039021;28;2287;-84
2023/10/12 12:56:21;;;;;;;;;;;;;;;21.87;59.06;100956.34;5037807;28;2286;-84
2023/10/12 12:58:48;;;;;;;;;;;;;;;21.87;58.99;100952.72;5039089;28;2318;-81
2023/10/12 13:01:16;;;;;;;;;;;;;;;21.89;58.99;100953.56;5036812;28;6010;-80
2023/10/12 13:03:43;;;;;;;;;;;;;;;21.95;59.35;100962.47;5017870;28;2455;-79
2023/10/12 13:06:12;;;;;;;;;;;;;;;21.99;59.24;100964.03;5037130;28;2357;-79
2023/10/12 13:08:38;;;;;;;;;;;;;;;21.95;58.90;100962.47;5036951;28;2258;-83
2023/10/12 13:11:04;;;;;;;;;;;;;;;22.02;59.20;100966.34;5037347;28;2301;-78
2023/10/12 13:13:33;;;;;;;;;;;;;;;22.09;59.13;100968.06;5032125;28;2502;-78
2023/10/12 13:16:00;;;;;;;;;;;;;;;22.26;58.95;100969.50;5034697;28;3117;-77
2023/10/12 13:18:29;;;;;;;;;;;;;;;22.17;58.60;100959.75;5034423;28;2357;-85
2023/10/12 13:20:57;;;;;;;;;;;;;;;22.09;59.12;100959.41;5034341;28;2312;-88
2023/10/12 13:23:24;;;;;;;;;;;;;;;22.01;59.37;100952.56;5035671;28;2242;-89
2023/10/12 13:25:51;;;;;;;;;;;;;;;22.11;59.61;100956.63;5038340;28;2341;-87
2023/10/12 13:28:17;;;;;;;;;;;;;;;22.06;59.49;100952.09;5033957;28;2306;-87
2023/10/12 13:30:44;;;;;;;;;;;;;;;22.02;59.96;100959.84;5034668;28;6277;-81
2023/10/12 13:33:13;;;;;;;;;;;;;;;22.01;59.65;100953.31;5031650;28;2279;-87
2023/10/12 13:38:09;;;;;;;;;;;;;;;21.98;59.98;100962.56;5035298;28;2766;-84
2023/10/12 13:40:39;;;;;;;;;;;;;;;22.09;59.94;100959.41;5032677;28;2642;-78
2023/10/12 13:43:26;;;;;;;;;;;;;;;22.20;59.32;100960.59;5036144;28;2516;-77
2023/10/12 13:45:55;;;;;;;;;;;;;;;22.32;59.14;100966.13;5033570;28;2314;-77
2023/10/12 13:48:25;;;;;;;;;;;;;;;22.26;59.17;100965.88;5035632;28;2279;-79
2023/10/12 13:51:19;;;;;;;;;;;;;;;22.07;59.80;100962.22;5038272;28;2358;-77
2023/10/12 13:53:46;;;;;;;;;;;;;;;22.01;59.70;100964.84;5034320;28;2258;-79
2023/10/12 13:56:13;;;;;;;;;;;;;;;22.00;59.85;100957.59;5036275;28;2267;-79
2023/10/12 13:58:39;;;;;;;;;;;;;;;22.00;60.00;100954.72;5036711;28;2287;-81
2023/10/12 14:01:13;;;;;;;;;;;;;;;22.16;59.92;100951.75;5035421;28;6640;-81
2023/10/12 14:03:53;;;;;;;;;;;;;;;22.29;59.42;100953.03;5034279;28;2307;-78
2023/10/12 14:06:21;;;;;;;;;;;;;;;22.31;59.25;100950.22;5034584;28;2251;-80
2023/10/12 14:08:48;;;;;;;;;;;;;;;22.34;58.91;100952.53;5036032;28;2251;-79
2023/10/12 14:11:14;;;;;;;;;;;;;;;22.26;59.28;100942.78;5037242;28;2259;-81
2023/10/12 14:13:41;;;;;;;;;;;;;;;22.01;60.01;100941.78;5017806;28;2295;-82
2023/10/12 14:16:10;;;;;;;;;;;;;;;22.13;59.83;100939.41;5033416;28;2681;-80
2023/10/12 14:18:37;;;;;;;;;;;;;;;22.19;59.39;100944.66;5035279;28;2320;-77
2023/10/12 14:21:09;;;;;;;;;;;;;;;22.20;59.38;100928.13;5034193;28;2241;-79
2023/10/12 14:23:43;;;;;;;;;;;;;;;22.21;59.47;100926.72;5035930;28;2255;-79
2023/10/12 14:26:17;;;;;;;;;;;;;;;22.15;59.31;100927.97;5019185;28;2441;-83
2023/10/12 14:28:50;;;;;;;;;;;;;;;22.09;59.57;100935.63;5036985;28;2829;-82
2023/10/12 14:31:20;;;;;;;;;;;;;;;22.10;59.98;100931.31;5035826;28;6239;-81
2023/10/12 14:33:47;;;;;;;;;;;;;;;22.10;59.59;100937.81;5032220;28;2310;-83
2023/10/12 14:36:14;;;;;;;;;;;;;;;22.10;59.66;100925.56;5035960;28;2329;-83
2023/10/12 14:38:40;;;;;;;;;;;;;;;22.11;59.53;100930.66;5036083;28;3487;-80
2023/10/12 14:41:09;;;;;;;;;;;;;;;22.22;60.12;100931.84;5035155;28;2659;-84
2023/10/12 14:43:36;;;;;;;;;;;;;;;22.23;59.69;100926.81;5039565;28;2181;-81
2023/10/12 14:46:04;;;;;;;;;;;;;;;22.10;60.23;100940.72;5039235;28;2336;-82
2023/10/12 14:48:31;;;;;;;;;;;;;;;22.04;60.32;100937.59;5040026;28;2192;-81
2023/10/12 14:51:08;;;;;;;;;;;;;;;22.02;60.56;100943.28;5040453;28;2318;-82
2023/10/12 14:53:35;;;;;;;;;;;;;;;21.98;60.59;100937.34;5024770;28;2325;-80
2023/10/12 14:56:03;;;;;;;;;;;;;;;21.98;60.71;100936.59;5041070;28;2169;-80
2023/10/12 14:58:30;;;;;;;;;;;;;;;21.96;60.47;100949.53;5040340;28;2398;-80
2023/10/12 15:00:56;;;;;;;;;;;;;;;21.96;60.40;100943.75;5037805;28;8300;-82
2023/10/12 15:03:23;;;;;;;;;;;;;;;21.98;60.36;100933.72;5021448;28;2319;-83
2023/10/12 15:05:53;;;;;;;;;;;;;;;22.03;60.43;100927.44;5041156;28;2184;-78
2023/10/12 15:08:19;;;;;;;;;;;;;;;22.22;60.13;100928.22;5037876;28;2326;-78
2023/10/12 15:10:46;;;;;;;;;;;;;;;22.19;59.66;100918.72;5034989;28;2266;-75
2023/10/12 15:13:13;;;;;;;;;;;;;;;22.06;59.31;100919.63;5035722;28;2331;-78
2023/10/12 15:15:40;;;;;;;;;;;;;;;22.03;59.06;100924.56;5037329;28;2307;-79
2023/10/12 15:18:09;;;;;;;;;;;;;;;21.98;59.23;100920.03;5039769;28;2188;-79
2023/10/12 15:20:36;;;;;;;;;;;;;;;21.67;59.90;100921.69;5039088;28;2296;-76
2023/10/12 15:23:02;;;;;;;;;;;;;;;21.60;60.09;100928.59;5038732;28;2299;-78